Bauline, Canada
Current Conditions -  °F | °C
As of 3:30 AM on Wednesday 28 Jan 2015 (Local Time) from CYYT Reporting Station
Light Rain Light Rain  
Wind Chill: 26°   Ceiling: 5000
Heat Index: 32°   Visibility: 5mi
Dew Point: 32°   Wind: 7mph
Humidity: 100%   Direction: 290°WNW
Pressure: 29.73"   Gusts: NA
Location:  47.72°N, 52.83°W
Report Text: CYYT 280630Z 29006KT 5SM -RA BR FEW005 SCT013 OVC050 00/00 A2973 RMK SF1SC3SC4 PRESFR SLP076
Loading
Personal Weather Stations






























Interactive Weather Map New forecast layout! Learn more

10-Day Weather Forecast

Advertisements
Track Severe Weather on mobile